createdAt,value
2019-06-27T00:00:10.577Z,49.88
2019-06-27T00:02:39.299Z,49.95
2019-06-27T00:05:08.115Z,49.96
2019-06-27T00:07:36.905Z,50.05
2019-06-27T00:10:05.809Z,50.26
2019-06-27T00:12:34.457Z,50.30
2019-06-27T00:15:03.089Z,50.36
2019-06-27T00:17:31.815Z,50.47
2019-06-27T00:20:00.461Z,50.49
2019-06-27T00:22:29.111Z,50.66
2019-06-27T00:24:57.752Z,50.55
2019-06-27T00:27:26.405Z,50.68
2019-06-27T00:29:55.054Z,50.68
2019-06-27T00:32:23.695Z,50.67
2019-06-27T00:34:52.438Z,50.99
2019-06-27T00:37:21.083Z,50.79
2019-06-27T00:39:49.755Z,50.95
2019-06-27T00:42:18.643Z,51.17
2019-06-27T00:44:47.279Z,51.44
2019-06-27T00:47:15.938Z,51.42
2019-06-27T00:49:44.585Z,51.33
2019-06-27T00:52:13.296Z,51.72
2019-06-27T00:54:42.003Z,51.79
2019-06-27T00:57:14.515Z,51.98
2019-06-27T00:59:41.091Z,52.03
2019-06-27T01:02:09.719Z,52.10
2019-06-27T01:04:38.426Z,52.27
2019-06-27T01:07:07.047Z,52.24
2019-06-27T01:09:35.674Z,52.45
2019-06-27T01:12:04.483Z,52.56
2019-06-27T01:14:33.126Z,52.71
2019-06-27T01:17:01.842Z,52.77
2019-06-27T01:19:30.579Z,53.02
2019-06-27T01:21:59.193Z,53.03
2019-06-27T01:24:27.896Z,53.01
2019-06-27T01:26:56.521Z,53.36
2019-06-27T01:29:25.183Z,53.43
2019-06-27T01:31:53.862Z,53.32
2019-06-27T01:34:22.559Z,53.32
2019-06-27T01:36:51.199Z,53.54
2019-06-27T01:39:19.833Z,53.76
2019-06-27T01:41:48.533Z,53.99
2019-06-27T01:44:34.713Z,54.04
2019-06-27T01:47:04.020Z,54.13
2019-06-27T01:49:32.736Z,54.11
2019-06-27T01:52:01.482Z,54.25
2019-06-27T01:54:30.166Z,54.17
2019-06-27T01:56:58.854Z,54.00
2019-06-27T01:59:27.501Z,54.30
2019-06-27T02:01:56.480Z,54.17
2019-06-27T02:04:25.202Z,54.19
2019-06-27T02:06:53.834Z,54.48
2019-06-27T02:09:22.550Z,54.63
2019-06-27T02:11:51.218Z,54.47
2019-06-27T02:14:19.826Z,54.64
2019-06-27T02:16:48.515Z,54.70
2019-06-27T02:19:17.208Z,54.78
2019-06-27T02:21:45.858Z,54.93
2019-06-27T02:24:14.499Z,55.01
2019-06-27T02:26:43.119Z,55.02
2019-06-27T02:29:19.810Z,55.23
2019-06-27T02:31:48.429Z,55.19
2019-06-27T02:34:17.132Z,55.28
2019-06-27T02:36:45.766Z,55.30
2019-06-27T02:39:14.484Z,55.28
2019-06-27T02:41:43.201Z,55.28
2019-06-27T02:44:11.820Z,55.55
2019-06-27T02:46:40.427Z,55.71
2019-06-27T02:49:09.064Z,55.79
2019-06-27T02:51:37.687Z,55.91
2019-06-27T02:54:06.393Z,55.86
2019-06-27T02:56:35.040Z,55.87
2019-06-27T02:59:03.667Z,55.85
2019-06-27T03:01:32.373Z,55.70
2019-06-27T03:04:01.028Z,55.81
2019-06-27T03:06:29.668Z,55.76
2019-06-27T03:08:58.361Z,55.92
2019-06-27T03:11:27.017Z,55.83
2019-06-27T03:13:55.728Z,55.81
2019-06-27T03:16:24.520Z,55.81
2019-06-27T03:18:53.135Z,55.81
2019-06-27T03:21:21.768Z,55.64
2019-06-27T03:23:50.487Z,55.49
2019-06-27T03:26:19.125Z,55.74
2019-06-27T03:28:53.339Z,55.52
2019-06-27T03:31:18.125Z,55.77
2019-06-27T03:33:46.885Z,55.78
2019-06-27T03:36:15.486Z,55.86
2019-06-27T03:38:44.186Z,55.92
2019-06-27T03:41:12.814Z,55.81
2019-06-27T03:43:41.521Z,55.56
2019-06-27T03:46:10.165Z,55.62
2019-06-27T03:48:38.887Z,55.51
2019-06-27T03:51:07.523Z,55.41
2019-06-27T03:53:36.148Z,55.63
2019-06-27T03:56:04.859Z,55.72
2019-06-27T03:58:33.630Z,55.95
2019-06-27T04:01:02.297Z,56.09
2019-06-27T04:03:30.989Z,56.12
2019-06-27T04:05:59.604Z,56.17
2019-06-27T04:08:28.226Z,56.07
2019-06-27T04:10:56.962Z,56.10
2019-06-27T04:13:25.689Z,56.13
2019-06-27T04:15:54.341Z,56.41
2019-06-27T04:18:22.982Z,56.24
2019-06-27T04:20:51.585Z,56.34
2019-06-27T04:23:20.274Z,56.41
2019-06-27T04:25:48.962Z,56.54
2019-06-27T04:28:17.587Z,56.63
2019-06-27T04:30:46.222Z,56.81
2019-06-27T04:33:15.060Z,56.66
2019-06-27T04:35:43.677Z,56.50
2019-06-27T04:38:12.292Z,56.47
2019-06-27T04:40:40.905Z,56.33
2019-06-27T04:43:09.648Z,56.17
2019-06-27T04:45:38.293Z,56.21
2019-06-27T04:48:06.924Z,56.20
2019-06-27T04:50:35.561Z,56.02
2019-06-27T04:53:04.209Z,55.55
2019-06-27T04:55:32.862Z,55.28
2019-06-27T04:58:04.524Z,55.23
2019-06-27T05:00:33.199Z,55.43
2019-06-27T05:03:01.824Z,54.90
2019-06-27T05:05:30.435Z,54.15
2019-06-27T05:07:59.064Z,54.22
2019-06-27T05:10:27.688Z,53.96
2019-06-27T05:12:56.310Z,53.97
2019-06-27T05:15:24.934Z,53.68
2019-06-27T05:17:53.940Z,53.79
2019-06-27T05:20:22.583Z,53.38
2019-06-27T05:22:51.297Z,53.62
2019-06-27T05:25:29.452Z,53.41
2019-06-27T05:27:56.487Z,52.75
2019-06-27T05:30:25.202Z,52.51
2019-06-27T05:32:53.967Z,52.36
2019-06-27T05:35:22.604Z,52.21
2019-06-27T05:37:51.413Z,52.00
2019-06-27T05:40:20.967Z,52.02
2019-06-27T05:42:49.603Z,51.15
2019-06-27T05:45:18.358Z,50.81
2019-06-27T05:47:46.977Z,50.30
2019-06-27T05:50:15.698Z,48.05
2019-06-27T05:52:44.354Z,48.18
2019-06-27T05:55:13.058Z,48.42
2019-06-27T05:57:41.666Z,46.90
2019-06-27T06:00:26.599Z,46.74
2019-06-27T06:02:40.663Z,46.43
2019-06-27T06:05:09.389Z,46.83
2019-06-27T06:07:38.117Z,46.45
2019-06-27T06:10:06.911Z,47.08
2019-06-27T06:12:35.542Z,47.10
2019-06-27T06:15:04.283Z,46.76
2019-06-27T06:17:32.911Z,46.48
2019-06-27T06:20:01.544Z,45.37
2019-06-27T06:22:30.308Z,45.02
2019-06-27T06:24:59.019Z,45.41
2019-06-27T06:27:27.795Z,45.57
2019-06-27T06:29:56.568Z,45.59
2019-06-27T06:32:25.186Z,45.03
2019-06-27T06:34:53.873Z,44.94
2019-06-27T06:37:22.444Z,44.78
2019-06-27T06:39:51.125Z,44.53
2019-06-27T06:42:19.834Z,44.27
2019-06-27T06:44:48.494Z,43.01
2019-06-27T06:47:17.248Z,42.99
2019-06-27T06:49:45.853Z,42.42
2019-06-27T06:52:14.504Z,41.26
2019-06-27T06:54:43.132Z,41.89
2019-06-27T06:57:11.865Z,42.44
2019-06-27T06:59:40.511Z,42.97
2019-06-27T07:02:09.173Z,43.46
2019-06-27T07:04:37.789Z,44.27
2019-06-27T07:07:06.472Z,44.11
2019-06-27T07:09:35.146Z,44.51
2019-06-27T07:12:03.930Z,44.76
2019-06-27T07:14:32.561Z,45.20
2019-06-27T07:17:01.196Z,43.90
2019-06-27T07:19:29.809Z,43.36
2019-06-27T07:21:58.522Z,43.54
2019-06-27T07:24:27.137Z,43.37
2019-06-27T07:26:55.792Z,43.32
2019-06-27T07:29:24.390Z,43.19
2019-06-27T07:31:52.999Z,43.30
2019-06-27T07:34:21.706Z,43.47
2019-06-27T07:36:50.313Z,43.53
2019-06-27T07:39:19.028Z,43.57
2019-06-27T07:41:47.693Z,43.73
2019-06-27T07:44:20.053Z,43.21
2019-06-27T07:46:46.810Z,43.24
2019-06-27T07:49:15.400Z,43.67
2019-06-27T07:51:44.036Z,43.30
2019-06-27T07:54:12.731Z,41.90
2019-06-27T07:56:41.361Z,41.52
2019-06-27T07:59:10.016Z,42.29
2019-06-27T08:01:38.711Z,42.62
2019-06-27T08:04:07.314Z,42.80
2019-06-27T08:06:35.955Z,42.67
2019-06-27T08:09:04.986Z,42.17
2019-06-27T08:11:33.645Z,42.55
2019-06-27T08:14:02.337Z,42.12
2019-06-27T08:16:30.990Z,42.55
2019-06-27T08:18:59.725Z,42.01
2019-06-27T08:21:28.371Z,42.06
2019-06-27T08:23:57.025Z,41.96
2019-06-27T08:26:25.653Z,41.24
2019-06-27T08:28:54.365Z,41.57
2019-06-27T08:31:22.983Z,41.67
2019-06-27T08:33:51.720Z,41.65
2019-06-27T08:36:20.405Z,40.44
2019-06-27T08:38:49.115Z,40.55
2019-06-27T08:41:17.775Z,40.55
2019-06-27T08:43:46.426Z,40.44
2019-06-27T08:46:15.035Z,40.14
2019-06-27T08:48:43.810Z,39.58
2019-06-27T08:51:12.585Z,39.62
2019-06-27T08:53:41.224Z,40.28
2019-06-27T08:56:09.937Z,40.18
2019-06-27T08:58:38.595Z,40.34
2019-06-27T09:01:07.230Z,40.28
2019-06-27T09:03:35.850Z,40.37
2019-06-27T09:06:04.671Z,39.86
2019-06-27T09:08:33.314Z,39.92
2019-06-27T09:11:01.943Z,39.42
2019-06-27T09:13:30.644Z,39.22
2019-06-27T09:15:59.249Z,38.92
2019-06-27T09:18:27.903Z,38.45
2019-06-27T09:20:56.521Z,39.20
2019-06-27T09:23:25.180Z,40.00
2019-06-27T09:25:53.892Z,38.21
2019-06-27T09:28:22.568Z,37.85
2019-06-27T09:30:51.494Z,37.97
2019-06-27T09:33:20.267Z,38.53
2019-06-27T09:35:48.948Z,37.29
2019-06-27T09:38:17.630Z,37.38
2019-06-27T09:40:46.275Z,37.43
2019-06-27T09:43:14.890Z,36.78
2019-06-27T09:45:43.513Z,37.24
2019-06-27T09:48:12.135Z,37.74
2019-06-27T09:50:40.821Z,38.37
2019-06-27T09:53:09.428Z,37.95
2019-06-27T09:55:38.100Z,38.03
2019-06-27T09:58:06.864Z,38.10
2019-06-27T10:00:35.566Z,38.03
2019-06-27T10:03:04.258Z,37.45
2019-06-27T10:05:32.893Z,37.94
2019-06-27T10:08:01.614Z,37.32
2019-06-27T10:10:30.326Z,37.80
2019-06-27T10:12:59.007Z,37.59
2019-06-27T10:15:27.709Z,37.71
2019-06-27T10:17:56.419Z,36.84
2019-06-27T10:20:25.144Z,36.56
2019-06-27T10:22:53.743Z,36.86
2019-06-27T10:25:22.359Z,37.43
2019-06-27T10:27:50.984Z,37.00
2019-06-27T10:30:21.218Z,37.29
2019-06-27T10:32:58.840Z,37.45
2019-06-27T10:35:20.172Z,37.19
2019-06-27T10:37:48.787Z,36.91
2019-06-27T10:40:17.511Z,36.71
2019-06-27T10:42:46.145Z,36.25
2019-06-27T10:45:14.914Z,34.98
2019-06-27T10:47:43.622Z,34.42
2019-06-27T10:50:12.481Z,34.81
2019-06-27T10:52:41.090Z,34.47
2019-06-27T10:55:10.083Z,34.14
2019-06-27T10:57:38.686Z,34.56
2019-06-27T11:00:07.650Z,34.84
2019-06-27T11:02:36.344Z,34.81
2019-06-27T11:05:05.242Z,33.34
2019-06-27T11:07:33.878Z,33.67
2019-06-27T11:10:02.532Z,33.83
2019-06-27T11:12:31.177Z,33.82
2019-06-27T11:15:00.016Z,34.32
2019-06-27T11:17:28.672Z,33.89
2019-06-27T11:19:57.326Z,33.58
2019-06-27T11:22:25.966Z,34.07
2019-06-27T11:24:54.578Z,33.93
2019-06-27T11:27:27.022Z,32.99
2019-06-27T11:29:53.733Z,33.78
2019-06-27T11:32:22.322Z,34.00
2019-06-27T11:34:50.944Z,33.58
2019-06-27T11:37:19.569Z,33.50
2019-06-27T11:39:48.173Z,33.27
2019-06-27T11:42:16.846Z,33.25
2019-06-27T11:44:45.469Z,33.34
2019-06-27T11:47:14.117Z,32.73
2019-06-27T11:49:42.885Z,32.49
2019-06-27T11:52:11.583Z,32.39
2019-06-27T11:54:40.200Z,32.83
2019-06-27T11:57:08.810Z,32.94
2019-06-27T11:59:37.420Z,32.58
2019-06-27T12:02:06.169Z,31.57
2019-06-27T12:04:34.806Z,30.71
2019-06-27T12:07:03.434Z,30.59
2019-06-27T12:09:32.078Z,28.88
2019-06-27T12:12:00.747Z,28.19
2019-06-27T12:14:29.545Z,27.25
2019-06-27T12:16:58.318Z,28.54
2019-06-27T12:19:26.875Z,28.40
2019-06-27T12:21:55.507Z,28.28
2019-06-27T12:24:24.161Z,28.32
2019-06-27T12:26:52.799Z,27.55
2019-06-27T12:29:21.437Z,27.50
2019-06-27T12:31:51.738Z,27.34
2019-06-27T12:34:21.315Z,27.84
2019-06-27T12:36:49.941Z,27.44
2019-06-27T12:39:18.568Z,28.20
2019-06-27T12:41:47.196Z,28.13
2019-06-27T12:44:15.890Z,28.24
2019-06-27T12:46:44.606Z,27.94
2019-06-27T12:49:13.339Z,28.10
2019-06-27T12:51:41.962Z,28.23
2019-06-27T12:54:10.594Z,27.66
2019-06-27T12:56:39.259Z,27.77
2019-06-27T12:59:07.955Z,27.53
2019-06-27T13:01:36.575Z,27.60
2019-06-27T13:04:13.483Z,27.38
2019-06-27T13:06:35.735Z,27.29
2019-06-27T13:09:05.286Z,27.20
2019-06-27T13:11:34.035Z,26.87
2019-06-27T13:14:02.754Z,26.98
2019-06-27T13:16:31.459Z,26.38
2019-06-27T13:19:00.165Z,26.61
2019-06-27T13:21:28.954Z,26.89
2019-06-27T13:23:57.712Z,26.86
2019-06-27T13:26:26.399Z,27.42
2019-06-27T13:28:55.002Z,27.02
2019-06-27T13:31:23.694Z,27.05
2019-06-27T13:33:52.279Z,27.17
2019-06-27T13:36:21.033Z,27.07
2019-06-27T13:38:49.740Z,27.39
2019-06-27T13:41:18.360Z,26.77
2019-06-27T13:43:49.358Z,26.91
2019-06-27T13:46:17.450Z,27.14
2019-06-27T13:48:46.087Z,27.08
2019-06-27T13:51:14.917Z,26.76
2019-06-27T13:53:43.523Z,27.19
2019-06-27T13:56:12.171Z,26.50
2019-06-27T13:58:40.881Z,27.07
2019-06-27T14:01:11.002Z,27.19
2019-06-27T14:03:49.362Z,27.12
2019-06-27T14:06:10.068Z,27.11
2019-06-27T14:08:38.710Z,26.92
2019-06-27T14:11:07.485Z,27.12
2019-06-27T14:13:36.057Z,26.57
2019-06-27T14:16:06.093Z,26.60
2019-06-27T14:18:34.968Z,26.43
2019-06-27T14:21:03.613Z,26.43
2019-06-27T14:23:32.229Z,26.10
2019-06-27T14:26:00.886Z,26.89
2019-06-27T14:28:29.519Z,26.97
2019-06-27T14:30:58.258Z,26.59
2019-06-27T14:33:27.000Z,26.62
2019-06-27T14:35:55.753Z,26.26
2019-06-27T14:38:24.351Z,26.22
2019-06-27T14:40:53.062Z,26.14
2019-06-27T14:43:21.771Z,26.24
2019-06-27T14:45:50.487Z,26.32
2019-06-27T14:48:19.063Z,26.43
2019-06-27T14:50:47.690Z,26.61
2019-06-27T14:53:16.462Z,26.71
2019-06-27T14:55:45.069Z,26.86
2019-06-27T14:58:13.702Z,26.59
2019-06-27T15:00:42.343Z,26.72
2019-06-27T15:03:10.976Z,26.50
2019-06-27T15:05:39.669Z,26.31
2019-06-27T15:08:08.406Z,26.64
2019-06-27T15:10:37.049Z,26.70
2019-06-27T15:13:05.752Z,26.80
2019-06-27T15:15:34.547Z,26.54
2019-06-27T15:18:03.328Z,26.72
2019-06-27T15:20:32.006Z,26.91
2019-06-27T15:23:00.803Z,26.68
2019-06-27T15:25:29.524Z,26.73
2019-06-27T15:27:58.343Z,26.80
2019-06-27T15:30:27.111Z,26.96
2019-06-27T15:32:55.882Z,27.24
2019-06-27T15:35:24.634Z,27.00
2019-06-27T15:37:53.241Z,26.93
2019-06-27T15:40:22.130Z,26.97
2019-06-27T15:42:52.483Z,26.86
2019-06-27T15:45:21.201Z,26.69
2019-06-27T15:47:49.951Z,26.75
2019-06-27T15:50:18.670Z,26.91
2019-06-27T15:52:47.472Z,26.78
2019-06-27T15:55:16.186Z,27.00
2019-06-27T15:57:44.804Z,26.77
2019-06-27T16:00:13.753Z,26.84
2019-06-27T16:02:42.466Z,27.14
2019-06-27T16:05:11.642Z,26.82
2019-06-27T16:07:40.301Z,26.11
2019-06-27T16:10:09.510Z,26.29
2019-06-27T16:12:38.474Z,26.22
2019-06-27T16:15:07.229Z,26.23
2019-06-27T16:17:35.895Z,26.06
2019-06-27T16:20:04.842Z,26.90
2019-06-27T16:22:33.470Z,25.61
2019-06-27T16:25:02.463Z,25.90
2019-06-27T16:27:31.371Z,25.83
2019-06-27T16:29:59.949Z,26.09
2019-06-27T16:32:28.641Z,26.13
2019-06-27T16:34:57.299Z,26.45
2019-06-27T16:37:25.938Z,26.41
2019-06-27T16:39:54.662Z,26.37
2019-06-27T16:42:23.369Z,25.90
2019-06-27T16:44:52.169Z,26.22
2019-06-27T16:47:20.833Z,26.32
2019-06-27T16:49:49.536Z,25.78
2019-06-27T16:52:18.426Z,25.40
2019-06-27T16:54:47.097Z,25.55
2019-06-27T16:57:15.912Z,25.44
2019-06-27T16:59:44.606Z,25.52
2019-06-27T17:02:13.251Z,24.89
2019-06-27T17:04:42.005Z,24.75
2019-06-27T17:07:10.734Z,24.71
2019-06-27T17:09:39.407Z,24.34
2019-06-27T17:12:08.041Z,24.44
2019-06-27T17:14:36.762Z,24.35
2019-06-27T17:17:05.424Z,24.21
2019-06-27T17:19:34.149Z,24.03
2019-06-27T17:22:02.901Z,23.87
2019-06-27T17:24:31.566Z,23.94
2019-06-27T17:27:00.193Z,24.03
2019-06-27T17:29:28.841Z,23.82
2019-06-27T17:31:57.453Z,23.47
2019-06-27T17:34:26.150Z,23.49
2019-06-27T17:36:57.758Z,23.59
2019-06-27T17:39:25.198Z,23.54
2019-06-27T17:41:53.846Z,23.25
2019-06-27T17:44:22.505Z,23.41
2019-06-27T17:46:51.216Z,23.76
2019-06-27T17:49:19.859Z,23.33
2019-06-27T17:51:48.678Z,23.40
2019-06-27T17:54:17.293Z,23.76
2019-06-27T17:56:45.969Z,23.67
2019-06-27T17:59:14.662Z,24.22
2019-06-27T18:01:43.369Z,24.09
2019-06-27T18:04:12.000Z,24.48
2019-06-27T18:06:40.663Z,24.92
2019-06-27T18:09:09.398Z,25.31
2019-06-27T18:11:38.244Z,25.65
2019-06-27T18:14:07.245Z,25.93
2019-06-27T18:16:35.991Z,26.13
2019-06-27T18:19:04.885Z,26.25
2019-06-27T18:21:33.534Z,26.62
2019-06-27T18:24:02.216Z,27.01
2019-06-27T18:26:48.532Z,27.25
2019-06-27T18:29:17.279Z,27.64
2019-06-27T18:31:46.010Z,27.64
2019-06-27T18:34:14.655Z,27.80
2019-06-27T18:36:43.332Z,27.96
2019-06-27T18:39:11.948Z,28.45
2019-06-27T18:41:40.573Z,28.46
2019-06-27T18:44:09.261Z,28.61
2019-06-27T18:46:37.941Z,28.69
2019-06-27T18:49:06.644Z,29.24
2019-06-27T18:51:35.342Z,29.13
2019-06-27T18:54:06.455Z,29.47
2019-06-27T18:56:35.091Z,29.67
2019-06-27T18:59:03.858Z,29.83
2019-06-27T19:01:32.485Z,30.18
2019-06-27T19:04:01.385Z,30.27
2019-06-27T19:06:30.251Z,30.52
2019-06-27T19:08:58.927Z,30.74
2019-06-27T19:11:53.220Z,30.88
2019-06-27T19:14:23.203Z,30.88
2019-06-27T19:16:54.774Z,31.03
2019-06-27T19:19:28.189Z,31.27
2019-06-27T19:22:16.867Z,31.38
2019-06-27T19:24:51.742Z,31.57
2019-06-27T19:27:22.667Z,31.84
2019-06-27T19:29:51.453Z,31.95
2019-06-27T19:32:20.248Z,32.02
2019-06-27T19:34:49.274Z,32.10
2019-06-27T19:37:18.002Z,32.20
2019-06-27T19:39:46.851Z,32.32
2019-06-27T19:42:17.115Z,32.43
2019-06-27T19:44:46.975Z,32.47
2019-06-27T19:47:15.815Z,32.65
2019-06-27T19:49:53.034Z,32.86
2019-06-27T19:52:22.664Z,32.97
2019-06-27T19:54:51.411Z,33.09
2019-06-27T19:57:22.375Z,33.25
2019-06-27T19:59:51.507Z,33.27
2019-06-27T20:02:20.332Z,33.51
2019-06-27T20:04:49.049Z,33.49
2019-06-27T20:07:17.885Z,33.71
2019-06-27T20:09:46.697Z,33.68
2019-06-27T20:12:15.453Z,33.86
2019-06-27T20:14:44.352Z,33.83
2019-06-27T20:17:13.251Z,33.95
2019-06-27T20:19:42.096Z,34.32
2019-06-27T20:22:11.008Z,34.46
2019-06-27T20:24:39.745Z,34.39
2019-06-27T20:27:10.539Z,34.54
2019-06-27T20:29:51.045Z,34.55
2019-06-27T20:32:20.104Z,34.82
2019-06-27T20:34:48.877Z,35.07
2019-06-27T20:37:27.238Z,35.39
2019-06-27T20:39:54.216Z,35.34
2019-06-27T20:42:24.439Z,35.47
2019-06-27T20:44:53.252Z,35.72
2019-06-27T20:47:21.944Z,35.79
2019-06-27T20:49:50.866Z,35.86
2019-06-27T20:52:19.596Z,35.99
2019-06-27T20:54:50.796Z,36.06
2019-06-27T20:57:22.926Z,36.07
2019-06-27T20:59:51.772Z,36.17
2019-06-27T21:02:20.522Z,36.17
2019-06-27T21:04:53.510Z,36.07
2019-06-27T21:07:22.281Z,36.35
2019-06-27T21:09:51.217Z,36.21
2019-06-27T21:12:19.897Z,36.18
2019-06-27T21:14:50.871Z,36.20
2019-06-27T21:17:19.654Z,36.16
2019-06-27T21:19:48.389Z,36.35
2019-06-27T21:22:17.210Z,36.08
2019-06-27T21:24:53.727Z,36.29
2019-06-27T21:27:22.520Z,36.50
2019-06-27T21:29:51.275Z,36.48
2019-06-27T21:32:30.933Z,36.71
2019-06-27T21:34:50.510Z,36.81
2019-06-27T21:37:19.295Z,36.79
2019-06-27T21:39:48.114Z,36.75
2019-06-27T21:42:16.956Z,36.94
2019-06-27T21:44:45.911Z,37.00
2019-06-27T21:47:14.753Z,37.14
2019-06-27T21:49:43.453Z,37.23
2019-06-27T21:52:13.531Z,37.35
2019-06-27T21:54:42.318Z,37.46
2019-06-27T21:57:11.197Z,37.51
2019-06-27T21:59:39.975Z,37.46
2019-06-27T22:02:08.925Z,37.51
2019-06-27T22:04:37.966Z,37.66
2019-06-27T22:07:06.792Z,37.70
2019-06-27T22:09:35.551Z,37.74
2019-06-27T22:12:04.376Z,37.97
2019-06-27T22:14:33.191Z,37.95
2019-06-27T22:17:02.071Z,38.25
2019-06-27T22:19:30.819Z,38.29
2019-06-27T22:21:59.582Z,38.33
2019-06-27T22:24:28.419Z,38.33
2019-06-27T22:26:57.218Z,38.35
2019-06-27T22:29:25.856Z,38.31
2019-06-27T22:31:55.914Z,38.45
2019-06-27T22:34:24.662Z,38.63
2019-06-27T22:36:56.572Z,38.64
2019-06-27T22:39:42.796Z,38.77
2019-06-27T22:42:29.103Z,38.90
2019-06-27T22:45:15.740Z,38.90
2019-06-27T22:48:02.006Z,39.08
2019-06-27T22:50:44.559Z,39.53
2019-06-27T22:53:15.545Z,39.36
2019-06-27T22:55:44.326Z,39.64
2019-06-27T22:58:12.944Z,39.55
2019-06-27T23:00:41.645Z,39.64
2019-06-27T23:03:10.362Z,39.89
2019-06-27T23:05:38.980Z,39.97
2019-06-27T23:08:07.764Z,40.23
2019-06-27T23:10:36.373Z,40.21
2019-06-27T23:13:05.072Z,40.40
2019-06-27T23:15:33.819Z,40.23
2019-06-27T23:18:02.519Z,40.21
2019-06-27T23:20:31.234Z,40.54
2019-06-27T23:22:59.881Z,40.65
2019-06-27T23:25:28.493Z,40.83
2019-06-27T23:27:57.122Z,41.14
2019-06-27T23:30:25.744Z,41.30
2019-06-27T23:32:54.391Z,41.50
2019-06-27T23:35:23.006Z,41.56
2019-06-27T23:37:51.653Z,41.58
2019-06-27T23:40:20.567Z,42.02
2019-06-27T23:42:49.198Z,42.22
2019-06-27T23:45:17.859Z,42.33
2019-06-27T23:47:46.519Z,42.48
2019-06-27T23:50:15.316Z,42.46
2019-06-27T23:52:43.946Z,42.58
2019-06-27T23:55:12.556Z,42.64
2019-06-27T23:57:41.254Z,42.93
